createdAt,value
2022-12-15T00:00:02.235Z,-2.30
2022-12-15T00:02:49.060Z,-2.30
2022-12-15T00:05:34.908Z,-2.40
2022-12-15T00:08:26.098Z,-2.40
2022-12-15T00:11:11.636Z,-2.40
2022-12-15T00:13:57.697Z,-2.40
2022-12-15T00:16:43.632Z,-2.40
2022-12-15T00:19:31.989Z,-2.30
2022-12-15T00:22:17.961Z,-2.20
2022-12-15T00:25:03.511Z,-2.10
2022-12-15T00:27:50.882Z,-2.20
2022-12-15T00:30:36.572Z,-2.30
2022-12-15T00:33:27.774Z,-2.40
2022-12-15T00:36:17.358Z,-2.30
2022-12-15T00:38:46.369Z,-2.40
2022-12-15T00:41:16.781Z,-2.40
2022-12-15T00:43:46.230Z,-2.50
2022-12-15T00:46:32.965Z,-2.30
2022-12-15T00:49:01.666Z,-2.50
2022-12-15T00:51:48.978Z,-2.50
2022-12-15T00:54:34.730Z,-2.50
2022-12-15T00:57:20.477Z,-2.50
2022-12-15T01:00:06.258Z,-2.50
2022-12-15T01:02:52.914Z,-2.60
2022-12-15T01:05:39.383Z,-2.50
2022-12-15T01:08:26.718Z,-2.50
2022-12-15T01:11:12.666Z,-2.50
2022-12-15T01:13:58.830Z,-2.60
2022-12-15T01:16:44.480Z,-2.60
2022-12-15T01:19:30.258Z,-2.70
2022-12-15T01:21:58.727Z,-2.70
2022-12-15T01:24:29.152Z,-2.70
2022-12-15T01:26:58.190Z,-2.70
2022-12-15T01:29:27.285Z,-2.70
2022-12-15T01:31:56.520Z,-2.60
2022-12-15T01:34:25.539Z,-2.70
2022-12-15T01:36:54.319Z,-2.70
2022-12-15T01:39:22.463Z,-2.70
2022-12-15T01:41:50.900Z,-2.80
2022-12-15T01:44:21.253Z,-2.80
2022-12-15T01:46:51.711Z,-2.80
2022-12-15T01:49:24.878Z,-2.80
2022-12-15T01:51:59.067Z,-2.90
2022-12-15T01:54:30.863Z,-2.80
2022-12-15T01:57:06.427Z,-2.80
2022-12-15T01:59:40.816Z,-2.80
2022-12-15T02:02:10.476Z,-2.90
2022-12-15T02:04:38.986Z,-2.90
2022-12-15T02:07:07.379Z,-2.90
2022-12-15T02:09:35.644Z,-2.90
2022-12-15T02:12:15.440Z,-3.00
2022-12-15T02:15:03.385Z,-3.00
2022-12-15T02:17:42.641Z,-2.90
2022-12-15T02:20:35.359Z,-2.90
2022-12-15T02:23:40.824Z,-2.80
2022-12-15T02:26:45.288Z,-2.80
2022-12-15T02:29:29.986Z,-2.70
2022-12-15T02:32:04.578Z,-2.90
2022-12-15T02:34:41.679Z,-3.00
2022-12-15T02:37:13.465Z,-3.00
2022-12-15T02:39:42.199Z,-3.10
2022-12-15T02:42:11.928Z,-3.10
2022-12-15T02:44:44.147Z,-3.20
2022-12-15T02:47:29.286Z,-3.10
2022-12-15T02:50:22.674Z,-3.20
2022-12-15T02:53:02.859Z,-3.20
2022-12-15T02:55:39.119Z,-3.30
2022-12-15T02:58:15.450Z,-3.30
2022-12-15T03:00:48.616Z,-3.30
2022-12-15T03:03:21.390Z,-3.40
2022-12-15T03:05:53.573Z,-3.30
2022-12-15T03:08:22.165Z,-3.30
2022-12-15T03:10:52.559Z,-3.30
2022-12-15T03:13:21.125Z,-3.30
2022-12-15T03:15:49.971Z,-3.20
2022-12-15T03:18:19.855Z,-3.10
2022-12-15T03:20:48.528Z,-3.20
2022-12-15T03:23:16.945Z,-3.30
2022-12-15T03:25:49.913Z,-3.30
2022-12-15T03:28:18.566Z,-3.30
2022-12-15T03:30:50.461Z,-3.40
2022-12-15T03:33:20.422Z,-3.40
2022-12-15T03:35:49.920Z,-3.40
2022-12-15T03:38:18.603Z,-3.40
2022-12-15T03:40:47.379Z,-3.40
2022-12-15T03:43:15.551Z,-3.40
2022-12-15T03:45:43.769Z,-3.50
2022-12-15T03:48:11.976Z,-3.50
2022-12-15T03:50:41.883Z,-3.50
2022-12-15T03:53:10.006Z,-3.50
2022-12-15T03:55:38.126Z,-3.60
2022-12-15T03:58:06.282Z,-3.70
2022-12-15T04:00:34.617Z,-3.70
2022-12-15T04:03:02.889Z,-3.70
2022-12-15T04:05:32.483Z,-3.70
2022-12-15T04:08:03.069Z,-3.80
2022-12-15T04:10:34.629Z,-3.80
2022-12-15T04:13:05.259Z,-3.80
2022-12-15T04:15:33.709Z,-3.90
2022-12-15T04:18:03.142Z,-3.80
2022-12-15T04:20:31.296Z,-3.90
2022-12-15T04:23:01.302Z,-3.90
2022-12-15T04:25:47.090Z,-3.80
2022-12-15T04:28:33.171Z,-3.80
2022-12-15T04:31:21.196Z,-3.90
2022-12-15T04:34:10.095Z,-4.00
2022-12-15T04:36:58.623Z,-4.00
2022-12-15T04:39:45.848Z,-4.00
2022-12-15T04:42:31.955Z,-4.00
2022-12-15T04:45:21.160Z,-4.10
2022-12-15T04:48:07.321Z,-4.10
2022-12-15T04:50:52.694Z,-4.10
2022-12-15T04:53:38.944Z,-4.20
2022-12-15T04:56:29.162Z,-4.20
2022-12-15T04:59:14.558Z,-4.20
2022-12-15T05:02:00.203Z,-4.30
2022-12-15T05:04:46.184Z,-4.30
2022-12-15T05:07:32.022Z,-4.30
2022-12-15T05:10:17.355Z,-4.30
2022-12-15T05:13:03.913Z,-4.40
2022-12-15T05:15:51.172Z,-4.40
2022-12-15T05:18:36.690Z,-4.50
2022-12-15T05:21:22.628Z,-4.50
2022-12-15T05:24:08.354Z,-4.40
2022-12-15T05:26:54.004Z,-4.40
2022-12-15T05:29:40.928Z,-4.30
2022-12-15T05:32:09.452Z,-4.30
2022-12-15T05:34:38.178Z,-4.40
2022-12-15T05:37:07.518Z,-4.40
2022-12-15T05:39:36.780Z,-4.40
2022-12-15T05:42:05.164Z,-4.60
2022-12-15T05:44:34.649Z,-4.60
2022-12-15T05:47:02.750Z,-4.70
2022-12-15T05:49:30.902Z,-4.80
2022-12-15T05:51:59.005Z,-4.80
2022-12-15T05:54:27.143Z,-4.90
2022-12-15T05:56:55.207Z,-5.00
2022-12-15T05:59:23.530Z,-5.00
2022-12-15T06:01:53.048Z,-5.00
2022-12-15T06:04:21.266Z,-4.90
2022-12-15T06:06:49.367Z,-4.80
2022-12-15T06:09:17.624Z,-5.10
2022-12-15T06:11:46.036Z,-5.10
2022-12-15T06:14:14.520Z,-5.10
2022-12-15T06:16:50.646Z,-5.20
2022-12-15T06:19:21.205Z,-5.20
2022-12-15T06:21:49.553Z,-5.20
2022-12-15T06:24:18.152Z,-5.10
2022-12-15T06:26:46.490Z,-5.10
2022-12-15T06:29:18.369Z,-5.10
2022-12-15T06:31:46.862Z,-5.10
2022-12-15T06:34:16.200Z,-5.00
2022-12-15T06:36:45.655Z,-5.10
2022-12-15T06:39:16.240Z,-5.00
2022-12-15T06:41:45.360Z,-5.10
2022-12-15T06:44:15.755Z,-5.10
2022-12-15T06:46:46.158Z,-5.20
2022-12-15T06:49:14.997Z,-5.10
2022-12-15T06:51:44.154Z,-5.40
2022-12-15T06:54:14.055Z,-5.30
2022-12-15T06:56:42.393Z,-5.30
2022-12-15T06:59:12.524Z,-5.30
2022-12-15T07:01:41.925Z,-5.30
2022-12-15T07:04:11.387Z,-5.40
2022-12-15T07:06:40.930Z,-5.40
2022-12-15T07:09:15.983Z,-5.30
2022-12-15T07:11:44.297Z,-5.30
2022-12-15T07:14:12.502Z,-5.30
2022-12-15T07:16:41.213Z,-5.30
2022-12-15T07:19:11.657Z,-5.40
2022-12-15T07:21:39.743Z,-5.40
2022-12-15T07:24:08.574Z,-5.30
2022-12-15T07:26:38.228Z,-5.30
2022-12-15T07:29:06.708Z,-5.20
2022-12-15T07:31:34.805Z,-5.20
2022-12-15T07:34:02.996Z,-5.10
2022-12-15T07:36:31.150Z,-5.00
2022-12-15T07:39:01.452Z,-5.00
2022-12-15T07:41:30.213Z,-4.90
2022-12-15T07:43:59.965Z,-4.80
2022-12-15T07:46:29.215Z,-4.50
2022-12-15T07:48:57.477Z,-4.20
2022-12-15T07:51:25.645Z,-3.70
2022-12-15T07:53:53.743Z,-3.20
2022-12-15T07:56:22.348Z,-2.70
2022-12-15T07:58:50.605Z,-2.30
2022-12-15T08:01:20.295Z,-2.10
2022-12-15T08:03:50.224Z,-1.90
2022-12-15T08:06:18.412Z,-1.90
2022-12-15T08:08:50.887Z,-1.80
2022-12-15T08:11:21.013Z,-1.70
2022-12-15T08:14:02.547Z,-1.40
2022-12-15T08:16:34.806Z,-0.90
2022-12-15T08:19:03.192Z,-0.30
2022-12-15T08:21:32.232Z,0.20
2022-12-15T08:24:01.980Z,0.80
2022-12-15T08:26:31.511Z,1.50
2022-12-15T08:29:31.858Z,1.80
2022-12-15T08:31:54.115Z,2.30
2022-12-15T08:34:22.536Z,2.90
2022-12-15T08:36:51.064Z,3.20
2022-12-15T08:39:19.402Z,3.50
2022-12-15T08:41:47.591Z,3.90
2022-12-15T08:44:17.035Z,4.00
2022-12-15T08:51:50.604Z,3.80
2022-12-15T08:54:20.298Z,3.90
2022-12-15T08:56:48.553Z,3.60
2022-12-15T08:59:16.969Z,2.90
2022-12-15T09:01:45.316Z,2.80
2022-12-15T09:04:15.785Z,2.80
2022-12-15T09:06:44.335Z,2.90
2022-12-15T09:09:16.636Z,2.80
2022-12-15T09:11:44.699Z,2.80
2022-12-15T09:14:12.855Z,3.00
2022-12-15T09:16:41.157Z,3.40
2022-12-15T09:19:10.340Z,4.00
2022-12-15T09:21:42.988Z,4.30
2022-12-15T09:24:20.601Z,4.30
2022-12-15T09:26:54.517Z,4.20
2022-12-15T09:29:22.620Z,4.10
2022-12-15T09:31:51.675Z,3.90
2022-12-15T09:34:19.743Z,3.40
2022-12-15T09:36:49.326Z,3.00
2022-12-15T09:39:17.710Z,3.00
2022-12-15T09:41:54.533Z,3.00
2022-12-15T09:44:25.696Z,3.30
2022-12-15T09:47:06.103Z,3.50
2022-12-15T09:50:03.095Z,3.50
2022-12-15T09:52:34.536Z,3.90
2022-12-15T09:55:04.358Z,4.20
2022-12-15T09:57:38.417Z,4.50
2022-12-15T10:00:21.240Z,4.70
2022-12-15T10:03:20.593Z,4.20
2022-12-15T10:06:16.573Z,4.00
2022-12-15T10:08:50.979Z,4.30
2022-12-15T10:11:24.840Z,4.10
2022-12-15T10:13:57.734Z,4.20
2022-12-15T10:16:33.042Z,4.50
2022-12-15T10:19:08.266Z,5.10
2022-12-15T10:21:37.548Z,5.70
2022-12-15T10:24:31.876Z,6.10
2022-12-15T10:27:20.009Z,6.40
2022-12-15T10:29:52.805Z,6.00
2022-12-15T10:32:26.708Z,5.80
2022-12-15T10:34:54.854Z,5.80
2022-12-15T10:37:24.320Z,5.90
2022-12-15T10:39:53.788Z,6.00
2022-12-15T10:42:24.787Z,6.20
2022-12-15T10:44:54.825Z,6.60
2022-12-15T10:47:26.101Z,6.70
2022-12-15T10:49:54.854Z,6.90
2022-12-15T10:52:27.396Z,7.00
2022-12-15T10:54:57.580Z,7.40
2022-12-15T10:57:31.799Z,7.30
2022-12-15T11:00:29.424Z,7.40
2022-12-15T11:02:58.756Z,7.30
2022-12-15T11:05:28.472Z,7.70
2022-12-15T11:08:13.502Z,8.20
2022-12-15T11:11:09.577Z,8.10
2022-12-15T11:13:38.960Z,8.20
2022-12-15T11:16:17.087Z,8.10
2022-12-15T11:18:51.367Z,8.20
2022-12-15T11:21:23.861Z,8.60
2022-12-15T11:24:01.544Z,8.90
2022-12-15T11:26:44.285Z,9.30
2022-12-15T11:29:25.790Z,9.60
2022-12-15T11:31:55.148Z,9.10
2022-12-15T11:34:26.023Z,9.30
2022-12-15T11:37:15.035Z,9.40
2022-12-15T11:39:56.209Z,9.10
2022-12-15T11:42:34.435Z,8.70
2022-12-15T11:45:09.823Z,9.00
2022-12-15T11:47:57.214Z,9.40
2022-12-15T11:50:31.596Z,9.50
2022-12-15T11:53:19.679Z,10.30
2022-12-15T11:55:59.040Z,11.10
2022-12-15T11:58:48.629Z,11.80
2022-12-15T12:04:02.430Z,13.10
2022-12-15T12:06:39.864Z,13.10
2022-12-15T12:09:22.534Z,12.40
2022-12-15T12:11:56.476Z,11.10
2022-12-15T12:14:45.751Z,11.00
2022-12-15T12:17:25.925Z,10.70
2022-12-15T12:19:59.026Z,11.00
2022-12-15T12:22:30.757Z,11.70
2022-12-15T12:25:02.297Z,12.30
2022-12-15T12:27:40.590Z,12.40
2022-12-15T12:30:15.048Z,12.20
2022-12-15T12:35:41.834Z,12.70
2022-12-15T12:38:15.003Z,12.20
2022-12-15T12:40:52.796Z,11.70
2022-12-15T12:43:34.108Z,11.60
2022-12-15T12:46:10.109Z,11.90
2022-12-15T12:48:44.232Z,12.40
2022-12-15T12:51:27.673Z,11.80
2022-12-15T12:53:56.271Z,12.50
2022-12-15T12:56:32.938Z,13.00
2022-12-15T12:59:01.167Z,13.80
2022-12-15T13:01:33.627Z,13.70
2022-12-15T13:04:09.896Z,13.50
2022-12-15T13:07:07.710Z,13.40
2022-12-15T13:09:41.642Z,12.70
2022-12-15T13:12:50.764Z,11.70
2022-12-15T13:15:32.829Z,11.90
2022-12-15T13:18:08.482Z,11.90
2022-12-15T13:20:38.311Z,11.80
2022-12-15T13:23:36.956Z,11.80
2022-12-15T13:26:19.119Z,11.50
2022-12-15T13:28:51.746Z,11.60
2022-12-15T13:31:34.599Z,11.40
2022-12-15T13:34:28.597Z,11.90
2022-12-15T13:36:58.699Z,12.70
2022-12-15T13:39:49.162Z,12.60
2022-12-15T13:42:37.393Z,12.60
2022-12-15T13:45:22.386Z,12.40
2022-12-15T13:47:56.356Z,11.90
2022-12-15T13:50:34.035Z,11.90
2022-12-15T13:53:20.406Z,11.70
2022-12-15T13:55:56.566Z,11.70
2022-12-15T13:58:25.754Z,11.60
2022-12-15T14:00:55.567Z,11.30
2022-12-15T14:03:24.267Z,10.60
2022-12-15T14:05:58.571Z,10.10
2022-12-15T14:08:29.691Z,9.70
2022-12-15T14:11:00.015Z,9.60
2022-12-15T14:13:31.790Z,9.60
2022-12-15T14:16:04.217Z,9.60
2022-12-15T15:03:12.733Z,12.30
2022-12-15T21:48:52.810Z,-0.90
2022-12-15T21:51:21.505Z,-0.90
2022-12-15T21:53:50.079Z,-0.90
2022-12-15T21:56:20.928Z,-0.80
2022-12-15T21:58:52.690Z,-0.80
2022-12-15T22:01:25.175Z,-0.80
2022-12-15T22:03:57.245Z,-0.70
2022-12-15T22:06:27.286Z,-0.70
2022-12-15T22:08:58.717Z,-0.70
2022-12-15T22:11:29.278Z,-0.80
2022-12-15T22:14:00.012Z,-0.80
2022-12-15T22:16:28.608Z,-0.80
2022-12-15T22:18:59.430Z,-0.90
2022-12-15T22:21:27.703Z,-1.00
2022-12-15T22:23:56.203Z,-1.10
2022-12-15T22:26:28.434Z,-1.20
2022-12-15T22:28:58.353Z,-1.20
2022-12-15T22:31:27.251Z,-1.30
2022-12-15T22:33:57.325Z,-1.40
2022-12-15T22:36:25.916Z,-1.80
2022-12-15T22:38:54.263Z,-2.30
2022-12-15T22:41:24.924Z,-2.80
2022-12-15T22:43:55.065Z,-3.20
2022-12-15T22:46:28.805Z,-3.50
2022-12-15T22:48:59.219Z,-3.80
2022-12-15T22:51:28.137Z,-3.80
2022-12-15T22:53:56.605Z,-3.80
2022-12-15T22:56:27.547Z,-3.60
2022-12-15T22:59:01.580Z,-3.30
2022-12-15T23:01:31.080Z,-3.10
2022-12-15T23:04:05.103Z,-2.90
2022-12-15T23:06:33.748Z,-2.80
2022-12-15T23:09:02.224Z,-2.60
2022-12-15T23:11:38.519Z,-2.50
2022-12-15T23:14:09.508Z,-2.30
2022-12-15T23:16:38.311Z,-2.20
2022-12-15T23:19:08.945Z,-2.10
2022-12-15T23:21:38.096Z,-2.00
2022-12-15T23:24:07.502Z,-1.80
2022-12-15T23:26:37.256Z,-1.80
2022-12-15T23:29:06.099Z,-1.70
2022-12-15T23:31:34.292Z,-1.70
2022-12-15T23:34:02.766Z,-1.70
2022-12-15T23:36:32.392Z,-1.70
2022-12-15T23:39:00.860Z,-1.70
2022-12-15T23:41:30.644Z,-1.70
2022-12-15T23:44:01.507Z,-1.60
2022-12-15T23:46:30.186Z,-1.50
2022-12-15T23:48:59.709Z,-1.40
2022-12-15T23:51:27.929Z,-1.30
2022-12-15T23:53:58.628Z,-1.30
2022-12-15T23:56:27.647Z,-1.20
2022-12-15T23:58:57.797Z,-1.10
